sensor_id;sensor_type;location;lat;lon;timestamp;P1;durP1;ratioP1;P2;durP2;ratioP2
15466;SDS011;7834;49.452;11.056;2023-03-29T03:49:55;5.07;;;3.20;;
15466;SDS011;7834;49.452;11.056;2023-03-29T03:52:21;4.07;;;3.65;;
15466;SDS011;7834;49.452;11.056;2023-03-29T03:54:47;5.47;;;3.80;;
15466;SDS011;7834;49.452;11.056;2023-03-29T03:57:14;4.45;;;3.65;;
15466;SDS011;7834;49.452;11.056;2023-03-29T03:59:40;5.72;;;3.70;;
15466;SDS011;7834;49.452;11.056;2023-03-29T04:02:06;4.72;;;3.33;;
15466;SDS011;7834;49.452;11.056;2023-03-29T04:04:32;5.28;;;3.88;;
15466;SDS011;7834;49.452;11.056;2023-03-29T04:06:58;4.03;;;3.40;;
15466;SDS011;7834;49.452;11.056;2023-03-29T04:09:29;4.43;;;3.20;;
15466;SDS011;7834;49.452;11.056;2023-03-29T04:11:55;3.85;;;3.40;;
15466;SDS011;7834;49.452;11.056;2023-03-29T04:14:21;4.72;;;3.33;;
15466;SDS011;7834;49.452;11.056;2023-03-29T04:16:47;3.60;;;3.23;;
15466;SDS011;7834;49.452;11.056;2023-03-29T04:19:13;3.95;;;3.28;;
15466;SDS011;7834;49.452;11.056;2023-03-29T04:21:39;3.60;;;2.95;;
15466;SDS011;7834;49.452;11.056;2023-03-29T04:24:07;5.63;;;3.13;;
15466;SDS011;7834;49.452;11.056;2023-03-29T04:26:33;4.20;;;3.20;;
15466;SDS011;7834;49.452;11.056;2023-03-29T04:28:59;4.10;;;3.70;;
15466;SDS011;7834;49.452;11.056;2023-03-29T04:31:25;4.17;;;3.33;;
15466;SDS011;7834;49.452;11.056;2023-03-29T04:33:51;5.20;;;3.80;;
15466;SDS011;7834;49.452;11.056;2023-03-29T04:36:17;5.53;;;3.58;;
15466;SDS011;7834;49.452;11.056;2023-03-29T04:38:44;5.20;;;3.73;;
15466;SDS011;7834;49.452;11.056;2023-03-29T04:41:11;4.73;;;3.50;;
15466;SDS011;7834;49.452;11.056;2023-03-29T04:43:39;4.17;;;3.67;;
15466;SDS011;7834;49.452;11.056;2023-03-29T04:46:05;5.10;;;3.53;;
15466;SDS011;7834;49.452;11.056;2023-03-29T04:48:32;4.10;;;3.67;;
15466;SDS011;7834;49.452;11.056;2023-03-29T04:51:00;4.10;;;3.53;;
15466;SDS011;7834;49.452;11.056;2023-03-29T04:53:26;5.17;;;3.90;;
15466;SDS011;7834;49.452;11.056;2023-03-29T04:55:52;4.70;;;3.93;;
15466;SDS011;7834;49.452;11.056;2023-03-29T04:58:19;5.47;;;3.87;;
15466;SDS011;7834;49.452;11.056;2023-03-29T05:00:46;4.53;;;3.73;;
15466;SDS011;7834;49.452;11.056;2023-03-29T05:03:12;6.30;;;4.10;;
15466;SDS011;7834;49.452;11.056;2023-03-29T05:05:38;4.93;;;4.17;;
15466;SDS011;7834;49.452;11.056;2023-03-29T05:08:05;5.27;;;4.10;;
15466;SDS011;7834;49.452;11.056;2023-03-29T05:10:32;7.17;;;4.37;;
15466;SDS011;7834;49.452;11.056;2023-03-29T05:12:58;5.67;;;4.23;;
15466;SDS011;7834;49.452;11.056;2023-03-29T05:15:24;4.67;;;4.07;;
15466;SDS011;7834;49.452;11.056;2023-03-29T05:17:50;6.63;;;4.30;;
15466;SDS011;7834;49.452;11.056;2023-03-29T05:20:17;4.67;;;4.07;;
15466;SDS011;7834;49.452;11.056;2023-03-29T05:22:43;5.93;;;4.10;;
15466;SDS011;7834;49.452;11.056;2023-03-29T05:25:09;8.43;;;3.97;;
15466;SDS011;7834;49.452;11.056;2023-03-29T05:27:37;5.13;;;4.23;;
15466;SDS011;7834;49.452;11.056;2023-03-29T05:30:03;6.17;;;4.20;;
15466;SDS011;7834;49.452;11.056;2023-03-29T05:32:29;5.90;;;4.40;;
15466;SDS011;7834;49.452;11.056;2023-03-29T05:34:55;5.23;;;4.00;;
15466;SDS011;7834;49.452;11.056;2023-03-29T05:37:21;5.53;;;4.20;;
15466;SDS011;7834;49.452;11.056;2023-03-29T05:39:47;5.27;;;4.20;;
15466;SDS011;7834;49.452;11.056;2023-03-29T05:42:13;7.43;;;4.20;;
15466;SDS011;7834;49.452;11.056;2023-03-29T05:44:40;6.73;;;4.50;;
15466;SDS011;7834;49.452;11.056;2023-03-29T05:47:06;6.90;;;4.33;;
15466;SDS011;7834;49.452;11.056;2023-03-29T05:49:32;5.57;;;4.00;;
15466;SDS011;7834;49.452;11.056;2023-03-29T05:51:58;6.03;;;4.73;;
15466;SDS011;7834;49.452;11.056;2023-03-29T05:54:25;5.03;;;4.30;;
15466;SDS011;7834;49.452;11.056;2023-03-29T05:56:51;5.67;;;4.20;;
15466;SDS011;7834;49.452;11.056;2023-03-29T05:59:17;5.20;;;4.30;;
15466;SDS011;7834;49.452;11.056;2023-03-29T06:01:43;6.67;;;4.30;;
15466;SDS011;7834;49.452;11.056;2023-03-29T06:04:13;5.93;;;4.63;;
15466;SDS011;7834;49.452;11.056;2023-03-29T06:06:39;5.73;;;4.13;;
15466;SDS011;7834;49.452;11.056;2023-03-29T06:09:05;7.93;;;4.27;;
15466;SDS011;7834;49.452;11.056;2023-03-29T06:11:32;7.63;;;4.40;;
15466;SDS011;7834;49.452;11.056;2023-03-29T06:13:59;12.03;;;5.20;;
15466;SDS011;7834;49.452;11.056;2023-03-29T06:16:26;5.80;;;3.90;;
15466;SDS011;7834;49.452;11.056;2023-03-29T06:18:53;7.50;;;5.80;;
15466;SDS011;7834;49.452;11.056;2023-03-29T06:21:19;5.70;;;4.40;;
15466;SDS011;7834;49.452;11.056;2023-03-29T06:23:46;7.97;;;4.30;;
15466;SDS011;7834;49.452;11.056;2023-03-29T06:26:12;5.17;;;4.30;;
15466;SDS011;7834;49.452;11.056;2023-03-29T06:28:38;5.63;;;4.27;;
15466;SDS011;7834;49.452;11.056;2023-03-29T06:31:04;9.37;;;4.20;;
15466;SDS011;7834;49.452;11.056;2023-03-29T06:33:30;5.70;;;4.23;;
15466;SDS011;7834;49.452;11.056;2023-03-29T06:35:58;5.10;;;4.20;;
15466;SDS011;7834;49.452;11.056;2023-03-29T06:38:24;7.07;;;4.47;;
15466;SDS011;7834;49.452;11.056;2023-03-29T06:40:58;4.67;;;3.93;;
15466;SDS011;7834;49.452;11.056;2023-03-29T06:43:24;6.07;;;4.37;;
15466;SDS011;7834;49.452;11.056;2023-03-29T06:45:51;6.30;;;4.50;;
15466;SDS011;7834;49.452;11.056;2023-03-29T06:48:18;7.10;;;4.80;;
15466;SDS011;7834;49.452;11.056;2023-03-29T06:50:44;7.03;;;4.43;;
15466;SDS011;7834;49.452;11.056;2023-03-29T06:53:12;8.98;;;4.35;;
15466;SDS011;7834;49.452;11.056;2023-03-29T06:55:39;6.47;;;4.15;;
15466;SDS011;7834;49.452;11.056;2023-03-29T06:58:05;6.78;;;4.30;;
15466;SDS011;7834;49.452;11.056;2023-03-29T07:00:33;7.28;;;4.10;;
15466;SDS011;7834;49.452;11.056;2023-03-29T07:03:05;5.90;;;3.63;;
15466;SDS011;7834;49.452;11.056;2023-03-29T07:05:33;6.70;;;4.18;;
15466;SDS011;7834;49.452;11.056;2023-03-29T07:08:05;7.28;;;4.30;;
15466;SDS011;7834;49.452;11.056;2023-03-29T07:10:34;6.60;;;4.40;;
15466;SDS011;7834;49.452;11.056;2023-03-29T07:13:03;8.85;;;4.38;;
15466;SDS011;7834;49.452;11.056;2023-03-29T07:15:30;5.50;;;4.60;;
15466;SDS011;7834;49.452;11.056;2023-03-29T07:17:57;5.88;;;4.35;;
15466;SDS011;7834;49.452;11.056;2023-03-29T07:20:23;5.50;;;4.57;;
15466;SDS011;7834;49.452;11.056;2023-03-29T07:22:51;6.35;;;4.70;;
15466;SDS011;7834;49.452;11.056;2023-03-29T07:25:18;7.53;;;4.80;;
15466;SDS011;7834;49.452;11.056;2023-03-29T07:27:44;6.75;;;4.70;;
15466;SDS011;7834;49.452;11.056;2023-03-29T07:30:12;7.65;;;4.40;;
15466;SDS011;7834;49.452;11.056;2023-03-29T07:32:40;6.65;;;4.70;;
15466;SDS011;7834;49.452;11.056;2023-03-29T07:35:08;7.10;;;4.50;;
15466;SDS011;7834;49.452;11.056;2023-03-29T07:37:36;8.88;;;4.72;;
15466;SDS011;7834;49.452;11.056;2023-03-29T07:40:14;7.30;;;4.53;;
15466;SDS011;7834;49.452;11.056;2023-03-29T07:42:47;7.22;;;4.47;;
15466;SDS011;7834;49.452;11.056;2023-03-29T07:45:14;6.28;;;4.20;;
15466;SDS011;7834;49.452;11.056;2023-03-29T07:47:44;7.72;;;5.78;;
15466;SDS011;7834;49.452;11.056;2023-03-29T07:50:11;6.80;;;4.53;;
15466;SDS011;7834;49.452;11.056;2023-03-29T07:52:38;8.98;;;5.13;;
15466;SDS011;7834;49.452;11.056;2023-03-29T07:55:08;7.30;;;4.88;;
15466;SDS011;7834;49.452;11.056;2023-03-29T07:57:35;10.35;;;4.60;;
15466;SDS011;7834;49.452;11.056;2023-03-29T08:00:01;6.85;;;4.50;;
15466;SDS011;7834;49.452;11.056;2023-03-29T08:02:53;6.50;;;4.47;;
15466;SDS011;7834;49.452;11.056;2023-03-29T08:05:20;6.93;;;4.35;;
15466;SDS011;7834;49.452;11.056;2023-03-29T08:07:47;6.15;;;4.30;;
15466;SDS011;7834;49.452;11.056;2023-03-29T08:10:17;6.87;;;4.40;;
15466;SDS011;7834;49.452;11.056;2023-03-29T08:12:44;7.67;;;4.83;;
15466;SDS011;7834;49.452;11.056;2023-03-29T08:15:10;7.35;;;4.70;;
15466;SDS011;7834;49.452;11.056;2023-03-29T08:17:37;6.90;;;4.63;;
15466;SDS011;7834;49.452;11.056;2023-03-29T08:20:04;5.90;;;4.20;;
15466;SDS011;7834;49.452;11.056;2023-03-29T08:22:33;5.65;;;4.30;;
15466;SDS011;7834;49.452;11.056;2023-03-29T08:24:59;6.85;;;4.15;;
15466;SDS011;7834;49.452;11.056;2023-03-29T08:27:26;7.00;;;4.40;;
15466;SDS011;7834;49.452;11.056;2023-03-29T08:29:53;6.80;;;4.50;;
15466;SDS011;7834;49.452;11.056;2023-03-29T08:32:19;5.50;;;4.35;;
15466;SDS011;7834;49.452;11.056;2023-03-29T08:34:45;4.90;;;4.00;;
15466;SDS011;7834;49.452;11.056;2023-03-29T08:37:11;7.40;;;4.40;;
15466;SDS011;7834;49.452;11.056;2023-03-29T08:39:37;6.80;;;4.57;;
15466;SDS011;7834;49.452;11.056;2023-03-29T08:49:53;5.70;;;4.47;;
15466;SDS011;7834;49.452;11.056;2023-03-29T08:54:55;6.73;;;4.80;;
15466;SDS011;7834;49.452;11.056;2023-03-29T08:57:24;9.45;;;6.65;;
15466;SDS011;7834;49.452;11.056;2023-03-29T08:59:53;7.25;;;4.20;;
15466;SDS011;7834;49.452;11.056;2023-03-29T09:02:23;4.13;;;3.72;;
15466;SDS011;7834;49.452;11.056;2023-03-29T09:04:51;4.47;;;3.78;;
15466;SDS011;7834;49.452;11.056;2023-03-29T09:07:17;7.22;;;4.20;;
15466;SDS011;7834;49.452;11.056;2023-03-29T09:09:43;9.97;;;7.33;;
15466;SDS011;7834;49.452;11.056;2023-03-29T09:17:05;5.30;;;3.00;;
15466;SDS011;7834;49.452;11.056;2023-03-29T09:19:50;3.90;;;3.10;;
15466;SDS011;7834;49.452;11.056;2023-03-29T09:24:55;5.53;;;3.00;;
15466;SDS011;7834;49.452;11.056;2023-03-29T09:27:26;5.97;;;3.35;;
15466;SDS011;7834;49.452;11.056;2023-03-29T09:30:02;5.13;;;3.17;;
15466;SDS011;7834;49.452;11.056;2023-03-29T09:32:31;6.50;;;3.22;;
15466;SDS011;7834;49.452;11.056;2023-03-29T09:35:10;3.17;;;2.88;;
15466;SDS011;7834;49.452;11.056;2023-03-29T09:37:42;4.40;;;3.20;;
15466;SDS011;7834;49.452;11.056;2023-03-29T09:40:09;4.35;;;2.95;;
15466;SDS011;7834;49.452;11.056;2023-03-29T09:42:36;5.18;;;3.10;;
15466;SDS011;7834;49.452;11.056;2023-03-29T09:45:03;3.85;;;2.90;;
15466;SDS011;7834;49.452;11.056;2023-03-29T09:50:20;3.90;;;3.10;;
15466;SDS011;7834;49.452;11.056;2023-03-29T09:52:47;3.38;;;2.85;;
15466;SDS011;7834;49.452;11.056;2023-03-29T09:55:14;3.53;;;2.73;;
15466;SDS011;7834;49.452;11.056;2023-03-29T09:57:41;3.65;;;2.63;;
15466;SDS011;7834;49.452;11.056;2023-03-29T10:00:08;5.00;;;2.67;;
15466;SDS011;7834;49.452;11.056;2023-03-29T10:02:34;4.57;;;2.80;;
15466;SDS011;7834;49.452;11.056;2023-03-29T10:05:03;4.22;;;2.50;;
15466;SDS011;7834;49.452;11.056;2023-03-29T10:07:33;5.35;;;2.97;;
15466;SDS011;7834;49.452;11.056;2023-03-29T10:10:00;4.83;;;2.60;;
15466;SDS011;7834;49.452;11.056;2023-03-29T10:12:27;4.45;;;2.63;;
15466;SDS011;7834;49.452;11.056;2023-03-29T10:14:53;3.90;;;2.50;;
15466;SDS011;7834;49.452;11.056;2023-03-29T10:17:23;3.80;;;2.30;;
15466;SDS011;7834;49.452;11.056;2023-03-29T10:19:54;3.78;;;2.63;;
15466;SDS011;7834;49.452;11.056;2023-03-29T10:22:31;4.18;;;2.50;;
15466;SDS011;7834;49.452;11.056;2023-03-29T10:24:58;3.77;;;2.53;;
15466;SDS011;7834;49.452;11.056;2023-03-29T10:27:27;4.13;;;2.50;;
15466;SDS011;7834;49.452;11.056;2023-03-29T10:29:54;4.05;;;2.70;;
15466;SDS011;7834;49.452;11.056;2023-03-29T10:34:48;4.50;;;2.38;;
15466;SDS011;7834;49.452;11.056;2023-03-29T10:37:18;4.88;;;2.72;;
15466;SDS011;7834;49.452;11.056;2023-03-29T10:39:48;5.25;;;2.90;;
15466;SDS011;7834;49.452;11.056;2023-03-29T10:42:18;2.13;;;1.93;;
15466;SDS011;7834;49.452;11.056;2023-03-29T10:44:54;4.87;;;2.23;;
15466;SDS011;7834;49.452;11.056;2023-03-29T10:47:21;4.05;;;2.30;;
15466;SDS011;7834;49.452;11.056;2023-03-29T10:52:17;3.70;;;2.10;;
15466;SDS011;7834;49.452;11.056;2023-03-29T10:54:44;3.50;;;2.00;;
15466;SDS011;7834;49.452;11.056;2023-03-29T10:57:12;3.33;;;1.88;;
15466;SDS011;7834;49.452;11.056;2023-03-29T11:20:24;4.00;;;2.03;;
15466;SDS011;7834;49.452;11.056;2023-03-29T11:30:29;3.67;;;2.00;;
15466;SDS011;7834;49.452;11.056;2023-03-29T11:41:23;7.50;;;2.17;;
15466;SDS011;7834;49.452;11.056;2023-03-29T11:43:55;4.07;;;2.30;;
15466;SDS011;7834;49.452;11.056;2023-03-29T11:48:58;4.40;;;2.00;;
15466;SDS011;7834;49.452;11.056;2023-03-29T11:51:31;2.78;;;2.10;;
15466;SDS011;7834;49.452;11.056;2023-03-29T11:57:10;4.78;;;2.17;;
15466;SDS011;7834;49.452;11.056;2023-03-29T12:02:24;4.63;;;2.58;;
15466;SDS011;7834;49.452;11.056;2023-03-29T12:04:54;3.42;;;2.38;;
15466;SDS011;7834;49.452;11.056;2023-03-29T12:07:36;4.60;;;2.53;;
15466;SDS011;7834;49.452;11.056;2023-03-29T12:12:43;5.07;;;2.40;;
15466;SDS011;7834;49.452;11.056;2023-03-29T12:15:14;4.57;;;2.20;;
15466;SDS011;7834;49.452;11.056;2023-03-29T12:18:30;3.67;;;2.17;;
15466;SDS011;7834;49.452;11.056;2023-03-29T12:20:31;3.70;;;2.50;;
15466;SDS011;7834;49.452;11.056;2023-03-29T12:22:59;4.75;;;2.33;;
15466;SDS011;7834;49.452;11.056;2023-03-29T12:30:45;3.83;;;2.20;;
15466;SDS011;7834;49.452;11.056;2023-03-29T12:33:29;2.83;;;2.17;;
15466;SDS011;7834;49.452;11.056;2023-03-29T12:38:32;3.95;;;2.55;;
15466;SDS011;7834;49.452;11.056;2023-03-29T12:40:59;4.37;;;2.00;;
15466;SDS011;7834;49.452;11.056;2023-03-29T12:43:32;4.47;;;2.10;;
15466;SDS011;7834;49.452;11.056;2023-03-29T12:48:31;4.78;;;2.00;;
15466;SDS011;7834;49.452;11.056;2023-03-29T12:51:00;5.88;;;3.00;;
15466;SDS011;7834;49.452;11.056;2023-03-29T12:53:33;12.20;;;7.68;;
15466;SDS011;7834;49.452;11.056;2023-03-29T13:01:04;3.03;;;1.80;;
15466;SDS011;7834;49.452;11.056;2023-03-29T13:03:39;4.35;;;2.03;;
15466;SDS011;7834;49.452;11.056;2023-03-29T13:06:08;3.25;;;2.10;;
15466;SDS011;7834;49.452;11.056;2023-03-29T13:08:36;3.42;;;1.90;;
15466;SDS011;7834;49.452;11.056;2023-03-29T13:11:03;4.57;;;2.38;;
15466;SDS011;7834;49.452;11.056;2023-03-29T13:13:33;4.75;;;2.50;;
15466;SDS011;7834;49.452;11.056;2023-03-29T13:16:07;3.80;;;2.40;;
15466;SDS011;7834;49.452;11.056;2023-03-29T13:23:50;5.32;;;2.17;;
15466;SDS011;7834;49.452;11.056;2023-03-29T13:29:28;6.75;;;2.92;;
15466;SDS011;7834;49.452;11.056;2023-03-29T13:34:49;3.40;;;2.33;;
15466;SDS011;7834;49.452;11.056;2023-03-29T13:37:39;7.25;;;3.63;;
15466;SDS011;7834;49.452;11.056;2023-03-29T13:42:58;5.65;;;2.38;;
15466;SDS011;7834;49.452;11.056;2023-03-29T13:45:25;3.80;;;2.45;;
15466;SDS011;7834;49.452;11.056;2023-03-29T13:48:02;5.50;;;2.47;;
15466;SDS011;7834;49.452;11.056;2023-03-29T13:50:37;4.53;;;2.53;;
15466;SDS011;7834;49.452;11.056;2023-03-29T13:54:05;5.72;;;2.50;;
15466;SDS011;7834;49.452;11.056;2023-03-29T13:56:00;5.07;;;2.40;;
15466;SDS011;7834;49.452;11.056;2023-03-29T13:58:35;4.03;;;2.50;;
15466;SDS011;7834;49.452;11.056;2023-03-29T14:01:07;4.90;;;2.53;;
15466;SDS011;7834;49.452;11.056;2023-03-29T14:03:39;4.38;;;2.70;;
15466;SDS011;7834;49.452;11.056;2023-03-29T14:06:07;5.28;;;2.90;;
15466;SDS011;7834;49.452;11.056;2023-03-29T14:08:36;6.85;;;2.90;;
15466;SDS011;7834;49.452;11.056;2023-03-29T14:11:04;3.55;;;2.55;;
15466;SDS011;7834;49.452;11.056;2023-03-29T14:13:31;6.18;;;3.00;;
15466;SDS011;7834;49.452;11.056;2023-03-29T14:15:58;4.68;;;2.60;;
15466;SDS011;7834;49.452;11.056;2023-03-29T14:18:26;5.38;;;2.90;;
15466;SDS011;7834;49.452;11.056;2023-03-29T14:20:54;5.82;;;2.80;;
15466;SDS011;7834;49.452;11.056;2023-03-29T14:23:24;5.32;;;2.75;;
15466;SDS011;7834;49.452;11.056;2023-03-29T14:25:51;4.63;;;2.85;;
15466;SDS011;7834;49.452;11.056;2023-03-29T14:28:24;4.43;;;2.70;;
15466;SDS011;7834;49.452;11.056;2023-03-29T14:30:51;4.35;;;2.67;;
15466;SDS011;7834;49.452;11.056;2023-03-29T14:33:27;5.75;;;2.83;;
15466;SDS011;7834;49.452;11.056;2023-03-29T14:35:54;4.60;;;2.60;;
15466;SDS011;7834;49.452;11.056;2023-03-29T14:38:21;3.83;;;2.58;;
15466;SDS011;7834;49.452;11.056;2023-03-29T14:40:47;4.45;;;2.80;;
15466;SDS011;7834;49.452;11.056;2023-03-29T14:43:16;5.07;;;2.70;;
15466;SDS011;7834;49.452;11.056;2023-03-29T14:45:42;4.30;;;2.90;;
15466;SDS011;7834;49.452;11.056;2023-03-29T14:48:10;6.13;;;2.75;;
15466;SDS011;7834;49.452;11.056;2023-03-29T14:50:37;6.40;;;2.80;;
15466;SDS011;7834;49.452;11.056;2023-03-29T14:53:03;6.78;;;2.80;;
15466;SDS011;7834;49.452;11.056;2023-03-29T14:55:30;5.72;;;2.92;;
15466;SDS011;7834;49.452;11.056;2023-03-29T14:57:56;5.95;;;2.70;;
15466;SDS011;7834;49.452;11.056;2023-03-29T15:00:28;5.57;;;2.70;;
15466;SDS011;7834;49.452;11.056;2023-03-29T15:02:56;4.63;;;2.85;;
15466;SDS011;7834;49.452;11.056;2023-03-29T15:05:24;4.28;;;2.50;;
15466;SDS011;7834;49.452;11.056;2023-03-29T15:07:50;4.82;;;2.70;;
15466;SDS011;7834;49.452;11.056;2023-03-29T15:10:19;5.70;;;2.58;;
15466;SDS011;7834;49.452;11.056;2023-03-29T15:12:46;3.10;;;2.40;;
15466;SDS011;7834;49.452;11.056;2023-03-29T15:15:12;4.03;;;2.40;;
15466;SDS011;7834;49.452;11.056;2023-03-29T15:17:40;3.10;;;2.27;;
15466;SDS011;7834;49.452;11.056;2023-03-29T15:20:49;3.47;;;2.58;;
15466;SDS011;7834;49.452;11.056;2023-03-29T15:22:57;2.80;;;2.13;;
15466;SDS011;7834;49.452;11.056;2023-03-29T15:25:34;4.30;;;2.70;;
15466;SDS011;7834;49.452;11.056;2023-03-29T15:28:01;5.55;;;2.47;;
15466;SDS011;7834;49.452;11.056;2023-03-29T15:30:29;4.30;;;2.78;;
15466;SDS011;7834;49.452;11.056;2023-03-29T15:33:07;3.95;;;2.60;;
15466;SDS011;7834;49.452;11.056;2023-03-29T15:35:33;3.78;;;2.53;;
15466;SDS011;7834;49.452;11.056;2023-03-29T15:37:59;4.72;;;2.88;;
15466;SDS011;7834;49.452;11.056;2023-03-29T15:40:27;5.03;;;3.10;;
15466;SDS011;7834;49.452;11.056;2023-03-29T15:42:53;5.15;;;2.70;;
15466;SDS011;7834;49.452;11.056;2023-03-29T15:45:20;4.55;;;2.50;;
15466;SDS011;7834;49.452;11.056;2023-03-29T15:47:46;4.00;;;2.80;;
15466;SDS011;7834;49.452;11.056;2023-03-29T15:50:12;3.73;;;2.37;;
15466;SDS011;7834;49.452;11.056;2023-03-29T15:52:40;4.40;;;2.65;;
15466;SDS011;7834;49.452;11.056;2023-03-29T15:55:06;3.38;;;2.63;;
15466;SDS011;7834;49.452;11.056;2023-03-29T15:57:33;3.63;;;2.40;;
15466;SDS011;7834;49.452;11.056;2023-03-29T15:59:59;3.47;;;2.65;;
15466;SDS011;7834;49.452;11.056;2023-03-29T16:02:25;5.00;;;3.00;;
15466;SDS011;7834;49.452;11.056;2023-03-29T16:04:52;4.07;;;2.67;;
15466;SDS011;7834;49.452;11.056;2023-03-29T16:07:18;5.38;;;2.53;;
15466;SDS011;7834;49.452;11.056;2023-03-29T16:09:45;4.22;;;2.55;;
15466;SDS011;7834;49.452;11.056;2023-03-29T16:12:11;4.15;;;2.67;;
15466;SDS011;7834;49.452;11.056;2023-03-29T16:14:40;3.93;;;2.90;;
15466;SDS011;7834;49.452;11.056;2023-03-29T16:17:06;16.35;;;10.77;;
15466;SDS011;7834;49.452;11.056;2023-03-29T16:19:32;13.70;;;9.55;;
15466;SDS011;7834;49.452;11.056;2023-03-29T16:21:59;4.50;;;2.70;;
15466;SDS011;7834;49.452;11.056;2023-03-29T16:24:27;3.88;;;2.72;;
15466;SDS011;7834;49.452;11.056;2023-03-29T16:26:55;4.10;;;2.72;;
15466;SDS011;7834;49.452;11.056;2023-03-29T16:29:22;5.32;;;2.88;;
15466;SDS011;7834;49.452;11.056;2023-03-29T16:31:48;6.50;;;5.10;;
15466;SDS011;7834;49.452;11.056;2023-03-29T16:34:15;4.53;;;3.60;;
15466;SDS011;7834;49.452;11.056;2023-03-29T16:36:43;4.28;;;3.40;;
15466;SDS011;7834;49.452;11.056;2023-03-29T16:39:09;5.63;;;2.70;;
15466;SDS011;7834;49.452;11.056;2023-03-29T16:41:37;4.85;;;2.80;;
15466;SDS011;7834;49.452;11.056;2023-03-29T16:44:03;6.35;;;4.35;;
15466;SDS011;7834;49.452;11.056;2023-03-29T16:46:29;6.50;;;3.80;;
15466;SDS011;7834;49.452;11.056;2023-03-29T16:48:55;7.23;;;5.30;;
15466;SDS011;7834;49.452;11.056;2023-03-29T16:51:22;5.68;;;3.22;;
15466;SDS011;7834;49.452;11.056;2023-03-29T16:53:48;6.13;;;4.32;;
15466;SDS011;7834;49.452;11.056;2023-03-29T16:56:17;7.45;;;5.10;;
15466;SDS011;7834;49.452;11.056;2023-03-29T16:58:43;5.85;;;3.55;;
15466;SDS011;7834;49.452;11.056;2023-03-29T17:01:11;5.40;;;3.72;;
15466;SDS011;7834;49.452;11.056;2023-03-29T17:03:38;6.97;;;4.47;;
15466;SDS011;7834;49.452;11.056;2023-03-29T17:06:04;6.25;;;3.50;;
15466;SDS011;7834;49.452;11.056;2023-03-29T17:08:31;5.47;;;3.53;;
15466;SDS011;7834;49.452;11.056;2023-03-29T17:10:57;4.33;;;3.40;;
15466;SDS011;7834;49.452;11.056;2023-03-29T17:13:24;4.77;;;3.37;;
15466;SDS011;7834;49.452;11.056;2023-03-29T17:15:50;5.85;;;3.72;;
15466;SDS011;7834;49.452;11.056;2023-03-29T17:18:17;5.70;;;3.53;;
15466;SDS011;7834;49.452;11.056;2023-03-29T17:20:43;7.18;;;3.60;;
15466;SDS011;7834;49.452;11.056;2023-03-29T17:23:10;4.88;;;3.40;;
15466;SDS011;7834;49.452;11.056;2023-03-29T17:25:36;6.00;;;3.60;;
15466;SDS011;7834;49.452;11.056;2023-03-29T17:28:02;5.95;;;3.53;;
15466;SDS011;7834;49.452;11.056;2023-03-29T17:30:28;6.32;;;4.10;;
15466;SDS011;7834;49.452;11.056;2023-03-29T17:32:55;5.65;;;3.92;;
15466;SDS011;7834;49.452;11.056;2023-03-29T17:35:21;8.10;;;3.90;;
15466;SDS011;7834;49.452;11.056;2023-03-29T17:37:47;7.80;;;4.15;;
15466;SDS011;7834;49.452;11.056;2023-03-29T17:40:13;8.20;;;5.32;;
15466;SDS011;7834;49.452;11.056;2023-03-29T17:42:39;6.97;;;4.55;;
15466;SDS011;7834;49.452;11.056;2023-03-29T17:45:06;9.32;;;4.68;;
15466;SDS011;7834;49.452;11.056;2023-03-29T17:47:32;7.72;;;4.60;;
15466;SDS011;7834;49.452;11.056;2023-03-29T17:49:58;8.23;;;4.90;;
15466;SDS011;7834;49.452;11.056;2023-03-29T17:52:25;8.50;;;5.22;;
15466;SDS011;7834;49.452;11.056;2023-03-29T17:54:51;8.80;;;5.10;;
15466;SDS011;7834;49.452;11.056;2023-03-29T17:57:17;7.45;;;5.43;;
15466;SDS011;7834;49.452;11.056;2023-03-29T17:59:43;10.33;;;7.37;;
15466;SDS011;7834;49.452;11.056;2023-03-29T18:02:15;10.48;;;7.63;;
15466;SDS011;7834;49.452;11.056;2023-03-29T18:04:41;9.15;;;6.18;;
15466;SDS011;7834;49.452;11.056;2023-03-29T18:07:07;6.18;;;4.40;;
15466;SDS011;7834;49.452;11.056;2023-03-29T18:09:33;5.73;;;4.30;;
15466;SDS011;7834;49.452;11.056;2023-03-29T18:11:59;6.65;;;4.03;;
15466;SDS011;7834;49.452;11.056;2023-03-29T18:14:26;7.83;;;4.80;;
15466;SDS011;7834;49.452;11.056;2023-03-29T18:16:52;8.05;;;4.60;;
15466;SDS011;7834;49.452;11.056;2023-03-29T18:19:18;7.07;;;4.72;;
15466;SDS011;7834;49.452;11.056;2023-03-29T18:21:44;7.63;;;4.90;;
15466;SDS011;7834;49.452;11.056;2023-03-29T18:24:10;7.32;;;4.70;;
15466;SDS011;7834;49.452;11.056;2023-03-29T18:26:36;8.95;;;4.50;;
15466;SDS011;7834;49.452;11.056;2023-03-29T18:29:02;6.80;;;4.35;;
15466;SDS011;7834;49.452;11.056;2023-03-29T18:31:28;6.85;;;4.45;;
15466;SDS011;7834;49.452;11.056;2023-03-29T18:33:54;9.25;;;6.55;;
15466;SDS011;7834;49.452;11.056;2023-03-29T18:36:20;9.75;;;6.90;;
15466;SDS011;7834;49.452;11.056;2023-03-29T18:38:49;9.48;;;7.50;;
15466;SDS011;7834;49.452;11.056;2023-03-29T18:41:17;10.63;;;8.27;;
15466;SDS011;7834;49.452;11.056;2023-03-29T18:43:44;8.90;;;5.70;;
15466;SDS011;7834;49.452;11.056;2023-03-29T18:46:11;9.52;;;7.63;;
15466;SDS011;7834;49.452;11.056;2023-03-29T18:48:38;9.93;;;8.00;;
15466;SDS011;7834;49.452;11.056;2023-03-29T18:51:05;8.95;;;6.15;;
15466;SDS011;7834;49.452;11.056;2023-03-29T18:53:32;8.18;;;6.68;;
15466;SDS011;7834;49.452;11.056;2023-03-29T18:55:59;7.43;;;5.93;;
15466;SDS011;7834;49.452;11.056;2023-03-29T18:58:26;9.70;;;6.43;;
15466;SDS011;7834;49.452;11.056;2023-03-29T19:00:52;7.27;;;5.30;;
15466;SDS011;7834;49.452;11.056;2023-03-29T19:03:18;8.30;;;5.20;;
15466;SDS011;7834;49.452;11.056;2023-03-29T19:05:45;7.95;;;5.13;;
15466;SDS011;7834;49.452;11.056;2023-03-29T19:08:17;6.35;;;4.88;;
15466;SDS011;7834;49.452;11.056;2023-03-29T19:10:43;9.30;;;5.15;;
15466;SDS011;7834;49.452;11.056;2023-03-29T19:13:09;8.10;;;5.78;;
15466;SDS011;7834;49.452;11.056;2023-03-29T19:15:35;8.02;;;5.72;;
15466;SDS011;7834;49.452;11.056;2023-03-29T19:18:04;6.53;;;5.07;;
15466;SDS011;7834;49.452;11.056;2023-03-29T19:20:30;7.50;;;5.10;;
15466;SDS011;7834;49.452;11.056;2023-03-29T19:22:56;7.22;;;5.03;;
15466;SDS011;7834;49.452;11.056;2023-03-29T19:25:22;8.85;;;4.60;;
15466;SDS011;7834;49.452;11.056;2023-03-29T19:27:48;6.67;;;4.40;;
15466;SDS011;7834;49.452;11.056;2023-03-29T19:30:14;8.15;;;4.90;;
15466;SDS011;7834;49.452;11.056;2023-03-29T19:32:42;7.97;;;5.37;;
15466;SDS011;7834;49.452;11.056;2023-03-29T19:35:08;7.35;;;4.93;;
15466;SDS011;7834;49.452;11.056;2023-03-29T19:37:37;6.40;;;5.20;;
15466;SDS011;7834;49.452;11.056;2023-03-29T19:40:03;7.28;;;4.90;;
15466;SDS011;7834;49.452;11.056;2023-03-29T19:42:34;7.97;;;5.50;;
15466;SDS011;7834;49.452;11.056;2023-03-29T19:45:00;7.80;;;5.15;;
15466;SDS011;7834;49.452;11.056;2023-03-29T19:47:27;7.70;;;4.67;;
15466;SDS011;7834;49.452;11.056;2023-03-29T19:49:55;8.57;;;4.80;;
15466;SDS011;7834;49.452;11.056;2023-03-29T19:52:22;7.60;;;4.70;;
15466;SDS011;7834;49.452;11.056;2023-03-29T19:54:48;6.63;;;4.43;;
15466;SDS011;7834;49.452;11.056;2023-03-29T19:57:15;9.23;;;5.03;;
15466;SDS011;7834;49.452;11.056;2023-03-29T19:59:41;9.65;;;5.00;;
15466;SDS011;7834;49.452;11.056;2023-03-29T20:02:10;6.97;;;4.47;;
15466;SDS011;7834;49.452;11.056;2023-03-29T20:04:36;10.05;;;4.60;;
15466;SDS011;7834;49.452;11.056;2023-03-29T20:07:03;7.63;;;4.38;;
15466;SDS011;7834;49.452;11.056;2023-03-29T20:09:30;6.63;;;4.50;;
15466;SDS011;7834;49.452;11.056;2023-03-29T20:11:59;7.00;;;4.30;;
15466;SDS011;7834;49.452;11.056;2023-03-29T20:14:25;8.60;;;4.30;;
15466;SDS011;7834;49.452;11.056;2023-03-29T20:16:51;6.30;;;4.22;;
15466;SDS011;7834;49.452;11.056;2023-03-29T20:19:18;5.80;;;4.23;;
15466;SDS011;7834;49.452;11.056;2023-03-29T20:21:52;6.97;;;4.35;;
15466;SDS011;7834;49.452;11.056;2023-03-29T20:24:22;6.10;;;4.40;;